American Falls, Idaho
Current Conditions -  °F | °C
As of 12:53 AM on Saturday 29 Nov 2014 (Local Time) from KPIH Reporting Station
Overcast Overcast  
Wind Chill: 42°   Ceiling: 11000
Heat Index: 48°   Visibility: 9mi
Dew Point: 19°   Wind: 14mph
Humidity: 32%   Direction: 240°WSW
Pressure: 29.68"   Gusts: NA
Location:  42.79°N, 112.85°W
Report Text: KPIH 290753Z AUTO 24012KT 9SM OVC110 09/M07 A2968 RMK AO2 SLP026 T00891072
Loading
Personal Weather Stations






























Interactive Weather Map New forecast layout! Learn more

10-Day Weather Forecast

Advertisements
Track Severe Weather on mobile